Portada
METAR-TAF:

METAR-TAF

Aeroports :

Baroda, Índia

latitud: 22-19-46N, longitud: 73-13-10E, altitud: 39 m

Observació

L'informe es va fer fa 21 minuts, a les 04:00 UTC
Vent 6 kt del Nord-Oest
Temperatura 34°C
Humitat 41%
Pressió 1009 hPa
Visibilitat: 6000 m

METAR: VABO 070400Z 32006KT 6000 NSC 34/19 Q1009 NOSIG

Hora: 09:51 (04:21 UTC)

Pronòstic

L'informe es va fer fa 5 hores i 21 minuts, a les 23:00 UTC
Pronòstic vàlid del 07 a les 00 UTC al 07 a les 09 UTC
Vent kt del Nord
Visibilitat: 6000 m
Evolucionant progressivament
l' 07 a les 01 UTC al 07 a les 03 UTC
Vent 4 kt del Oest/Nord-Oest
Evolucionant progressivament
l' 07 a les 04 UTC al 07 a les 06 UTC
Vent 4 kt del Nord-Oest

TAF: VABO 062300Z 0700/0709 00000KT 6000 NSC BECMG 0701/0703 29004KT BECMG 0704/0706 32004KT

Observacions i pronòstics meteorològics de més de 4000 aeroports (METAR i TAF).

Les estacions disponibles són els punts grocs i vermells al mapa.

Posi el ratolí al punt desitjat per veure el nom de l'estació.

Feu clic per veure les observacions i els pronòstics meteorològics.

Per canviar el mapa: feu clic els botons verds amb una creu de color negre per apropar; al botó verd amb un guió per allunyar la imatge; o en les fletxes verdes per a mapes adjacents.


METAR-TAF: